sensor_id;sensor_type;location;lat;lon;timestamp;pressure;altitude;pressure_sealevel;temperature;humidity
23619;BME280;18207;32.078;34.818;2023-01-28T00:01:29;100579.16;;;26.31;25.90
23619;BME280;18207;32.078;34.818;2023-01-28T00:03:59;100576.72;;;26.30;26.27
23619;BME280;18207;32.078;34.818;2023-01-28T00:06:31;100575.09;;;26.29;26.04
23619;BME280;18207;32.078;34.818;2023-01-28T00:09:01;100583.09;;;26.27;26.23
23619;BME280;18207;32.078;34.818;2023-01-28T00:11:31;100592.38;;;26.27;26.37
23619;BME280;18207;32.078;34.818;2023-01-28T00:14:01;100616.91;;;26.27;26.16
23619;BME280;18207;32.078;34.818;2023-01-28T00:16:32;100638.66;;;26.26;26.20
23619;BME280;18207;32.078;34.818;2023-01-28T00:19:02;100648.75;;;26.27;26.17
23619;BME280;18207;32.078;34.818;2023-01-28T00:21:34;100650.38;;;26.28;25.93
23619;BME280;18207;32.078;34.818;2023-01-28T00:24:05;100619.38;;;26.28;26.30
23619;BME280;18207;32.078;34.818;2023-01-28T00:26:36;100611.72;;;26.29;25.86
23619;BME280;18207;32.078;34.818;2023-01-28T00:29:07;100599.66;;;26.28;25.98
23619;BME280;18207;32.078;34.818;2023-01-28T00:31:37;100571.47;;;26.28;26.15
23619;BME280;18207;32.078;34.818;2023-01-28T00:34:09;100561.81;;;26.29;26.12
23619;BME280;18207;32.078;34.818;2023-01-28T00:36:40;100528.38;;;26.28;26.12
23619;BME280;18207;32.078;34.818;2023-01-28T00:39:13;100555.75;;;26.27;26.23
23619;BME280;18207;32.078;34.818;2023-01-28T00:41:44;100573.03;;;26.26;26.24
23619;BME280;18207;32.078;34.818;2023-01-28T00:44:14;100594.78;;;26.25;26.27
23619;BME280;18207;32.078;34.818;2023-01-28T00:46:44;100604.03;;;26.26;26.27
23619;BME280;18207;32.078;34.818;2023-01-28T00:49:14;100608.03;;;26.25;26.25
23619;BME280;18207;32.078;34.818;2023-01-28T00:51:47;100622.56;;;26.27;26.30
23619;BME280;18207;32.078;34.818;2023-01-28T00:54:17;100629.38;;;26.26;26.40
23619;BME280;18207;32.078;34.818;2023-01-28T00:56:48;100616.91;;;26.27;26.63
23619;BME280;18207;32.078;34.818;2023-01-28T00:59:20;100583.94;;;26.27;26.41
23619;BME280;18207;32.078;34.818;2023-01-28T01:01:51;100565.41;;;26.26;26.31
23619;BME280;18207;32.078;34.818;2023-01-28T01:04:21;100604.03;;;26.26;26.32
23619;BME280;18207;32.078;34.818;2023-01-28T01:07:04;100617.31;;;26.25;26.35
23619;BME280;18207;32.078;34.818;2023-01-28T01:09:34;100618.50;;;26.24;26.57
23619;BME280;18207;32.078;34.818;2023-01-28T01:12:05;100634.97;;;26.22;26.49
23619;BME280;18207;32.078;34.818;2023-01-28T01:14:35;100642.97;;;26.20;26.40
23619;BME280;18207;32.078;34.818;2023-01-28T01:17:06;100632.09;;;26.19;26.21
23619;BME280;18207;32.078;34.818;2023-01-28T01:19:37;100620.00;;;26.18;26.37
23619;BME280;18207;32.078;34.818;2023-01-28T01:22:09;100615.56;;;26.17;26.13
23619;BME280;18207;32.078;34.818;2023-01-28T01:24:39;100609.50;;;26.15;26.26
23619;BME280;18207;32.078;34.818;2023-01-28T01:27:09;100597.78;;;26.13;26.37
23619;BME280;18207;32.078;34.818;2023-01-28T01:29:39;100597.34;;;26.11;26.71
23619;BME280;18207;32.078;34.818;2023-01-28T01:32:09;100571.97;;;26.11;26.33
23619;BME280;18207;32.078;34.818;2023-01-28T01:34:39;100575.97;;;26.10;26.53
23619;BME280;18207;32.078;34.818;2023-01-28T01:37:14;100590.06;;;26.10;26.41
23619;BME280;18207;32.078;34.818;2023-01-28T01:39:44;100612.19;;;26.08;26.59
23619;BME280;18207;32.078;34.818;2023-01-28T01:42:15;100615.00;;;26.08;26.51
23619;BME280;18207;32.078;34.818;2023-01-28T01:44:59;100588.44;;;26.09;26.57
23619;BME280;18207;32.078;34.818;2023-01-28T01:47:38;100542.53;;;26.05;26.75
23619;BME280;18207;32.078;34.818;2023-01-28T01:50:19;100541.28;;;26.03;26.38
23619;BME280;18207;32.078;34.818;2023-01-28T01:52:57;100579.06;;;26.02;26.64
23619;BME280;18207;32.078;34.818;2023-01-28T01:55:34;100587.88;;;26.00;26.78
23619;BME280;18207;32.078;34.818;2023-01-28T01:58:09;100568.16;;;26.00;26.62
23619;BME280;18207;32.078;34.818;2023-01-28T02:00:41;100567.38;;;26.00;26.57
23619;BME280;18207;32.078;34.818;2023-01-28T02:03:12;100573.81;;;26.00;26.40
23619;BME280;18207;32.078;34.818;2023-01-28T02:05:43;100576.63;;;26.00;26.61
23619;BME280;18207;32.078;34.818;2023-01-28T02:08:15;100569.78;;;26.01;26.52
23619;BME280;18207;32.078;34.818;2023-01-28T02:10:57;100537.19;;;26.00;26.74
23619;BME280;18207;32.078;34.818;2023-01-28T02:13:38;100540.00;;;26.00;26.70
23619;BME280;18207;32.078;34.818;2023-01-28T02:16:09;100546.81;;;25.99;26.68
23619;BME280;18207;32.078;34.818;2023-01-28T02:18:40;100549.63;;;25.99;26.86
23619;BME280;18207;32.078;34.818;2023-01-28T02:22:00;100544.00;;;25.99;26.51
23619;BME280;18207;32.078;34.818;2023-01-28T02:25:28;100550.88;;;25.98;26.50
23619;BME280;18207;32.078;34.818;2023-01-28T02:28:31;100550.03;;;25.98;26.61
23619;BME280;18207;32.078;34.818;2023-01-28T02:31:13;100558.91;;;26.00;26.49
23619;BME280;18207;32.078;34.818;2023-01-28T02:33:55;100544.44;;;26.01;26.79
23619;BME280;18207;32.078;34.818;2023-01-28T02:36:35;100550.91;;;26.02;26.54
23619;BME280;18207;32.078;34.818;2023-01-28T02:39:12;100544.09;;;26.03;26.39
23619;BME280;18207;32.078;34.818;2023-01-28T02:41:50;100544.50;;;26.05;26.63
23619;BME280;18207;32.078;34.818;2023-01-28T02:44:25;100565.06;;;26.05;26.73
23619;BME280;18207;32.078;34.818;2023-01-28T02:46:55;100570.28;;;26.07;26.83
23619;BME280;18207;32.078;34.818;2023-01-28T02:49:45;100571.47;;;26.06;26.46
23619;BME280;18207;32.078;34.818;2023-01-28T02:52:49;100552.59;;;26.06;26.42
23619;BME280;18207;32.078;34.818;2023-01-28T02:55:48;100558.59;;;26.05;26.35
23619;BME280;18207;32.078;34.818;2023-01-28T02:58:34;100576.31;;;26.05;26.76
23619;BME280;18207;32.078;34.818;2023-01-28T03:01:20;100563.03;;;26.06;26.79
23619;BME280;18207;32.078;34.818;2023-01-28T03:04:00;100556.22;;;26.07;26.59
23619;BME280;18207;32.078;34.818;2023-01-28T03:06:38;100541.69;;;26.05;26.82
23619;BME280;18207;32.078;34.818;2023-01-28T03:09:11;100544.09;;;26.03;26.74
23619;BME280;18207;32.078;34.818;2023-01-28T03:11:57;100555.72;;;26.01;26.49
23619;BME280;18207;32.078;34.818;2023-01-28T03:14:49;100544.41;;;25.98;26.83
23619;BME280;18207;32.078;34.818;2023-01-28T03:17:43;100528.69;;;25.97;26.69
23619;BME280;18207;32.078;34.818;2023-01-28T03:20:38;100532.69;;;25.96;26.79
23619;BME280;18207;32.078;34.818;2023-01-28T03:23:35;100552.78;;;25.95;26.82
23619;BME280;18207;32.078;34.818;2023-01-28T03:26:27;100574.88;;;25.93;26.70
23619;BME280;18207;32.078;34.818;2023-01-28T03:29:20;100559.59;;;25.94;26.86
23619;BME280;18207;32.078;34.818;2023-01-28T03:32:10;100544.72;;;25.93;26.89
23619;BME280;18207;32.078;34.818;2023-01-28T03:35:00;100572.88;;;25.93;26.83
23619;BME280;18207;32.078;34.818;2023-01-28T03:37:47;100578.53;;;25.93;26.81
23619;BME280;18207;32.078;34.818;2023-01-28T03:40:18;100562.03;;;25.95;26.85
23619;BME280;18207;32.078;34.818;2023-01-28T03:42:48;100517.38;;;25.94;26.66
23619;BME280;18207;32.078;34.818;2023-01-28T03:45:19;100529.47;;;25.94;27.06
23619;BME280;18207;32.078;34.818;2023-01-28T03:47:48;100534.25;;;25.94;26.69
23619;BME280;18207;32.078;34.818;2023-01-28T03:50:22;100551.59;;;25.96;26.62
23619;BME280;18207;32.078;34.818;2023-01-28T03:52:52;100564.06;;;25.95;26.70
23619;BME280;18207;32.078;34.818;2023-01-28T03:55:43;100566.47;;;25.96;26.78
23619;BME280;18207;32.078;34.818;2023-01-28T03:58:15;100565.28;;;25.97;26.79
23619;BME280;18207;32.078;34.818;2023-01-28T04:00:46;100595.91;;;25.98;26.89
23619;BME280;18207;32.078;34.818;2023-01-28T04:03:18;100576.22;;;25.98;26.61
23619;BME280;18207;32.078;34.818;2023-01-28T04:06:01;100548.84;;;25.99;26.88
23619;BME280;18207;32.078;34.818;2023-01-28T04:08:31;100568.94;;;25.98;26.64
23619;BME280;18207;32.078;34.818;2023-01-28T04:11:02;100570.56;;;25.98;26.87
23619;BME280;18207;32.078;34.818;2023-01-28T04:13:43;100552.84;;;25.98;26.62
23619;BME280;18207;32.078;34.818;2023-01-28T04:16:15;100547.22;;;25.98;26.94
23619;BME280;18207;32.078;34.818;2023-01-28T04:18:46;100592.66;;;25.97;27.10
23619;BME280;18207;32.078;34.818;2023-01-28T04:21:18;100606.75;;;25.97;27.02
23619;BME280;18207;32.078;34.818;2023-01-28T04:23:49;100602.75;;;25.98;27.20
23619;BME280;18207;32.078;34.818;2023-01-28T04:26:19;100599.94;;;25.98;26.97
23619;BME280;18207;32.078;34.818;2023-01-28T04:28:49;100591.47;;;25.98;27.03
23619;BME280;18207;32.078;34.818;2023-01-28T04:31:19;100587.03;;;25.97;27.04
23619;BME280;18207;32.078;34.818;2023-01-28T04:33:51;100585.84;;;25.98;26.83
23619;BME280;18207;32.078;34.818;2023-01-28T04:36:24;100591.84;;;25.96;26.92
23619;BME280;18207;32.078;34.818;2023-01-28T04:38:54;100604.28;;;25.95;26.87
23619;BME280;18207;32.078;34.818;2023-01-28T04:41:24;100599.03;;;25.94;27.24
23619;BME280;18207;32.078;34.818;2023-01-28T04:43:54;100595.41;;;25.93;27.31
23619;BME280;18207;32.078;34.818;2023-01-28T04:46:24;100586.97;;;25.93;27.14
23619;BME280;18207;32.078;34.818;2023-01-28T04:48:55;100590.59;;;25.94;27.19
23619;BME280;18207;32.078;34.818;2023-01-28T04:51:26;100576.50;;;25.94;27.16
23619;BME280;18207;32.078;34.818;2023-01-28T04:53:56;100595.41;;;25.93;27.23
23619;BME280;18207;32.078;34.818;2023-01-28T04:56:26;100599.03;;;25.94;27.56
23619;BME280;18207;32.078;34.818;2023-01-28T04:58:57;100615.94;;;25.94;27.31
23619;BME280;18207;32.078;34.818;2023-01-28T05:01:27;100604.66;;;25.94;27.03
23619;BME280;18207;32.078;34.818;2023-01-28T05:03:57;100608.31;;;25.94;27.40
23619;BME280;18207;32.078;34.818;2023-01-28T05:06:34;100612.31;;;25.93;27.04
23619;BME280;18207;32.078;34.818;2023-01-28T05:09:04;100611.94;;;25.95;27.48
23619;BME280;18207;32.078;34.818;2023-01-28T05:11:34;100620.75;;;25.93;27.36
23619;BME280;18207;32.078;34.818;2023-01-28T05:14:06;100617.13;;;25.93;27.53
23619;BME280;18207;32.078;34.818;2023-01-28T05:16:36;100619.94;;;25.93;27.64
23619;BME280;18207;32.078;34.818;2023-01-28T05:19:05;100622.31;;;25.91;27.42
23619;BME280;18207;32.078;34.818;2023-01-28T05:21:37;100633.22;;;25.92;27.80
23619;BME280;18207;32.078;34.818;2023-01-28T05:24:07;100636.03;;;25.92;27.45
23619;BME280;18207;32.078;34.818;2023-01-28T05:26:37;100633.22;;;25.92;27.21
23619;BME280;18207;32.078;34.818;2023-01-28T05:29:08;100630.00;;;25.94;27.78
23619;BME280;18207;32.078;34.818;2023-01-28T05:31:38;100632.84;;;25.94;27.64
23619;BME280;18207;32.078;34.818;2023-01-28T05:34:08;100618.75;;;25.94;27.44
23619;BME280;18207;32.078;34.818;2023-01-28T05:36:40;100618.31;;;25.92;27.86
23619;BME280;18207;32.078;34.818;2023-01-28T05:39:10;100630.41;;;25.92;28.04
23619;BME280;18207;32.078;34.818;2023-01-28T05:41:40;100640.84;;;25.92;27.80
23619;BME280;18207;32.078;34.818;2023-01-28T05:44:11;100644.47;;;25.92;27.86
23619;BME280;18207;32.078;34.818;2023-01-28T05:46:41;100656.19;;;25.94;27.93
23619;BME280;18207;32.078;34.818;2023-01-28T05:49:13;100669.06;;;25.95;27.84
23619;BME280;18207;32.078;34.818;2023-01-28T05:51:46;100666.69;;;25.97;28.22
23619;BME280;18207;32.078;34.818;2023-01-28T05:54:16;100665.50;;;25.98;28.14
23619;BME280;18207;32.078;34.818;2023-01-28T05:56:46;100681.66;;;26.01;28.19
23619;BME280;18207;32.078;34.818;2023-01-28T05:59:17;100677.28;;;26.03;28.50
23619;BME280;18207;32.078;34.818;2023-01-28T06:01:47;100678.53;;;26.06;28.21
23619;BME280;18207;32.078;34.818;2023-01-28T06:04:17;100682.97;;;26.07;28.29
23619;BME280;18207;32.078;34.818;2023-01-28T06:06:49;100672.53;;;26.07;28.24
23619;BME280;18207;32.078;34.818;2023-01-28T06:09:19;100678.97;;;26.08;28.49
23619;BME280;18207;32.078;34.818;2023-01-28T06:11:50;100670.50;;;26.08;28.37
23619;BME280;18207;32.078;34.818;2023-01-28T06:14:20;100668.53;;;26.08;28.45
23619;BME280;18207;32.078;34.818;2023-01-28T06:16:50;100674.16;;;26.08;28.58
23619;BME280;18207;32.078;34.818;2023-01-28T06:19:20;100682.22;;;26.10;28.70
23619;BME280;18207;32.078;34.818;2023-01-28T06:21:52;100676.28;;;26.15;28.68
23619;BME280;18207;32.078;34.818;2023-01-28T06:24:22;100687.63;;;26.18;28.75
23619;BME280;18207;32.078;34.818;2023-01-28T06:26:52;100692.94;;;26.23;28.77
23619;BME280;18207;32.078;34.818;2023-01-28T06:29:23;100678.09;;;26.26;28.67
23619;BME280;18207;32.078;34.818;2023-01-28T06:31:53;100692.25;;;26.30;28.46
23619;BME280;18207;32.078;34.818;2023-01-28T06:34:23;100682.22;;;26.32;28.47
23619;BME280;18207;32.078;34.818;2023-01-28T06:36:55;100682.69;;;26.34;28.63
23619;BME280;18207;32.078;34.818;2023-01-28T06:39:25;100684.75;;;26.37;28.49
23619;BME280;18207;32.078;34.818;2023-01-28T06:41:59;100686.38;;;26.38;28.66
23619;BME280;18207;32.078;34.818;2023-01-28T06:44:29;100708.19;;;26.41;28.59
23619;BME280;18207;32.078;34.818;2023-01-28T06:46:59;100719.09;;;26.43;28.50
23619;BME280;18207;32.078;34.818;2023-01-28T06:49:29;100707.44;;;26.44;28.56
23619;BME280;18207;32.078;34.818;2023-01-28T06:52:03;100701.88;;;26.48;28.62
23619;BME280;18207;32.078;34.818;2023-01-28T06:54:33;100715.56;;;26.49;28.55
23619;BME280;18207;32.078;34.818;2023-01-28T06:57:04;100728.91;;;26.52;28.68
23619;BME280;18207;32.078;34.818;2023-01-28T06:59:34;100738.63;;;26.55;28.53
23619;BME280;18207;32.078;34.818;2023-01-28T07:02:05;100753.56;;;26.55;28.69
23619;BME280;18207;32.078;34.818;2023-01-28T07:04:34;100759.63;;;26.57;28.78
23619;BME280;18207;32.078;34.818;2023-01-28T07:07:06;100745.59;;;26.61;28.89
23619;BME280;18207;32.078;34.818;2023-01-28T07:09:37;100750.47;;;26.64;28.81
23619;BME280;18207;32.078;34.818;2023-01-28T07:12:07;100745.72;;;26.68;29.00
23619;BME280;18207;32.078;34.818;2023-01-28T07:14:38;100750.97;;;26.69;29.16
23619;BME280;18207;32.078;34.818;2023-01-28T07:17:08;100754.66;;;26.73;29.06
23619;BME280;18207;32.078;34.818;2023-01-28T07:19:38;100755.56;;;26.77;29.25
23619;BME280;18207;32.078;34.818;2023-01-28T07:22:10;100754.47;;;26.85;29.63
23619;BME280;18207;32.078;34.818;2023-01-28T07:24:40;100759.41;;;26.91;29.85
23619;BME280;18207;32.078;34.818;2023-01-28T07:27:10;100763.97;;;26.99;29.71
23619;BME280;18207;32.078;34.818;2023-01-28T07:29:40;100745.25;;;27.10;30.10
23619;BME280;18207;32.078;34.818;2023-01-28T07:32:11;100752.28;;;27.23;30.36
23619;BME280;18207;32.078;34.818;2023-01-28T07:34:41;100759.78;;;27.38;30.57
23619;BME280;18207;32.078;34.818;2023-01-28T07:37:14;100757.22;;;27.56;30.76
23619;BME280;18207;32.078;34.818;2023-01-28T07:39:45;100755.03;;;27.72;30.92
23619;BME280;18207;32.078;34.818;2023-01-28T07:42:15;100760.47;;;27.87;31.03
23619;BME280;18207;32.078;34.818;2023-01-28T07:44:45;100757.81;;;28.01;31.07
23619;BME280;18207;32.078;34.818;2023-01-28T07:47:16;100766.41;;;28.11;31.07
23619;BME280;18207;32.078;34.818;2023-01-28T07:49:47;100762.06;;;28.21;31.20
23619;BME280;18207;32.078;34.818;2023-01-28T07:52:18;100772.72;;;28.31;31.21
23619;BME280;18207;32.078;34.818;2023-01-28T07:54:49;100770.03;;;28.41;31.48
23619;BME280;18207;32.078;34.818;2023-01-28T07:57:18;100773.34;;;28.50;31.03
23619;BME280;18207;32.078;34.818;2023-01-28T07:59:50;100764.94;;;28.61;31.54
23619;BME280;18207;32.078;34.818;2023-01-28T08:02:21;100760.19;;;28.71;31.34
23619;BME280;18207;32.078;34.818;2023-01-28T08:04:51;100758.66;;;28.77;31.31
23619;BME280;18207;32.078;34.818;2023-01-28T08:07:23;100750.66;;;28.83;31.36
23619;BME280;18207;32.078;34.818;2023-01-28T08:09:54;100755.16;;;28.91;31.34
23619;BME280;18207;32.078;34.818;2023-01-28T08:12:24;100742.25;;;28.97;31.13
23619;BME280;18207;32.078;34.818;2023-01-28T08:14:54;100738.69;;;29.03;31.17
23619;BME280;18207;32.078;34.818;2023-01-28T08:17:25;100727.03;;;29.12;31.02
23619;BME280;18207;32.078;34.818;2023-01-28T08:19:55;100729.06;;;29.18;31.25
23619;BME280;18207;32.078;34.818;2023-01-28T08:22:28;100732.38;;;29.27;31.28
23619;BME280;18207;32.078;34.818;2023-01-28T08:24:58;100742.13;;;29.37;31.36
23619;BME280;18207;32.078;34.818;2023-01-28T08:27:28;100741.81;;;29.45;31.20
23619;BME280;18207;32.078;34.818;2023-01-28T08:29:58;100722.44;;;29.54;31.42
23619;BME280;18207;32.078;34.818;2023-01-28T08:32:29;100727.72;;;29.62;31.00
23619;BME280;18207;32.078;34.818;2023-01-28T08:34:59;100718.88;;;29.71;30.92
23619;BME280;18207;32.078;34.818;2023-01-28T08:37:31;100725.41;;;29.78;31.03
23619;BME280;18207;32.078;34.818;2023-01-28T08:40:02;100721.78;;;29.85;31.17
23619;BME280;18207;32.078;34.818;2023-01-28T08:42:32;100713.72;;;29.90;30.96
23619;BME280;18207;32.078;34.818;2023-01-28T08:45:04;100710.91;;;29.97;30.81
23619;BME280;18207;32.078;34.818;2023-01-28T08:47:34;100710.50;;;30.02;30.54
23619;BME280;18207;32.078;34.818;2023-01-28T08:50:06;100700.41;;;30.08;30.81
23619;BME280;18207;32.078;34.818;2023-01-28T08:52:38;100695.56;;;30.12;30.74
23619;BME280;18207;32.078;34.818;2023-01-28T08:55:11;100700.84;;;30.17;30.72
23619;BME280;18207;32.078;34.818;2023-01-28T08:57:41;100695.97;;;30.21;30.53
23619;BME280;18207;32.078;34.818;2023-01-28T09:00:13;100702.88;;;30.24;29.99
23619;BME280;18207;32.078;34.818;2023-01-28T09:02:44;100701.25;;;30.26;30.08
23619;BME280;18207;32.078;34.818;2023-01-28T09:05:14;100702.47;;;30.29;29.69
23619;BME280;18207;32.078;34.818;2023-01-28T09:07:46;100698.00;;;30.31;29.83
23619;BME280;18207;32.078;34.818;2023-01-28T09:10:18;100694.81;;;30.33;29.76
23619;BME280;18207;32.078;34.818;2023-01-28T09:12:49;100678.56;;;30.33;30.01
23619;BME280;18207;32.078;34.818;2023-01-28T09:15:19;100678.19;;;30.35;29.94
23619;BME280;18207;32.078;34.818;2023-01-28T09:17:49;100680.19;;;30.34;29.63
23619;BME280;18207;32.078;34.818;2023-01-28T09:20:26;100681.03;;;30.35;29.94
23619;BME280;18207;32.078;34.818;2023-01-28T09:22:58;100683.03;;;30.34;29.44
23619;BME280;18207;32.078;34.818;2023-01-28T09:25:29;100679.00;;;30.35;29.69
23619;BME280;18207;32.078;34.818;2023-01-28T09:27:59;100680.19;;;30.34;29.33
23619;BME280;18207;32.078;34.818;2023-01-28T09:30:30;100691.53;;;30.34;29.48
23619;BME280;18207;32.078;34.818;2023-01-28T09:33:03;100677.38;;;30.34;29.82
23619;BME280;18207;32.078;34.818;2023-01-28T09:35:33;100660.34;;;30.34;29.70
23619;BME280;18207;32.078;34.818;2023-01-28T09:38:05;100658.34;;;30.35;29.55
23619;BME280;18207;32.078;34.818;2023-01-28T09:40:39;100659.94;;;30.36;29.61
23619;BME280;18207;32.078;34.818;2023-01-28T09:43:32;100661.97;;;30.35;29.39
23619;BME280;18207;32.078;34.818;2023-01-28T09:46:10;100653.06;;;30.33;29.79
23619;BME280;18207;32.078;34.818;2023-01-28T09:48:44;100653.06;;;30.33;29.81
23619;BME280;18207;32.078;34.818;2023-01-28T09:51:33;100646.97;;;30.31;29.97
23619;BME280;18207;32.078;34.818;2023-01-28T09:54:23;100638.06;;;30.29;29.80
23619;BME280;18207;32.078;34.818;2023-01-28T09:57:04;100641.28;;;30.28;29.40
23619;BME280;18207;32.078;34.818;2023-01-28T09:59:35;100636.84;;;30.27;29.60
23619;BME280;18207;32.078;34.818;2023-01-28T10:02:38;100632.38;;;30.26;29.63
23619;BME280;18207;32.078;34.818;2023-01-28T10:05:21;100624.28;;;30.24;29.88
23619;BME280;18207;32.078;34.818;2023-01-28T10:08:09;100619.03;;;30.23;29.75
23619;BME280;18207;32.078;34.818;2023-01-28T10:10:52;100628.75;;;30.22;29.91
23619;BME280;18207;32.078;34.818;2023-01-28T10:13:35;100619.41;;;30.21;29.65
23619;BME280;18207;32.078;34.818;2023-01-28T10:16:18;100627.53;;;30.19;29.45
23619;BME280;18207;32.078;34.818;2023-01-28T10:18:59;100629.97;;;30.17;29.72
23619;BME280;18207;32.078;34.818;2023-01-28T10:21:37;100616.16;;;30.16;29.39
23619;BME280;18207;32.078;34.818;2023-01-28T10:24:16;100614.94;;;30.13;29.64
23619;BME280;18207;32.078;34.818;2023-01-28T10:26:49;100599.56;;;30.11;29.74
23619;BME280;18207;32.078;34.818;2023-01-28T10:29:26;100599.16;;;30.09;29.47
23619;BME280;18207;32.078;34.818;2023-01-28T10:32:03;100598.75;;;30.07;29.33
23619;BME280;18207;32.078;34.818;2023-01-28T10:34:35;100597.53;;;30.04;29.56
23619;BME280;18207;32.078;34.818;2023-01-28T10:37:07;100597.13;;;30.02;29.41
23619;BME280;18207;32.078;34.818;2023-01-28T10:39:37;100602.41;;;30.00;29.33
23619;BME280;18207;32.078;34.818;2023-01-28T10:42:25;100603.59;;;29.96;29.45
23619;BME280;18207;32.078;34.818;2023-01-28T10:45:00;100603.56;;;29.92;29.49
23619;BME280;18207;32.078;34.818;2023-01-28T10:47:37;100605.19;;;29.90;29.59
23619;BME280;18207;32.078;34.818;2023-01-28T10:50:17;100605.19;;;29.86;29.51
23619;BME280;18207;32.078;34.818;2023-01-28T10:52:54;100605.56;;;29.81;29.70
23619;BME280;18207;32.078;34.818;2023-01-28T10:55:29;100599.88;;;29.78;29.80
23619;BME280;18207;32.078;34.818;2023-01-28T10:58:15;100597.88;;;29.75;29.75
23619;BME280;18207;32.078;34.818;2023-01-28T11:00:52;100589.34;;;29.71;29.82
23619;BME280;18207;32.078;34.818;2023-01-28T11:03:25;100599.88;;;29.67;29.74
23619;BME280;18207;32.078;34.818;2023-01-28T11:05:58;100595.81;;;29.65;29.69
23619;BME280;18207;32.078;34.818;2023-01-28T11:08:42;100585.28;;;29.62;29.57
23619;BME280;18207;32.078;34.818;2023-01-28T11:11:14;100594.56;;;29.59;29.64
23619;BME280;18207;32.078;34.818;2023-01-28T11:13:51;100596.63;;;29.58;29.96
23619;BME280;18207;32.078;34.818;2023-01-28T11:16:25;100592.56;;;29.56;29.87
23619;BME280;18207;32.078;34.818;2023-01-28T11:19:02;100586.47;;;29.54;29.65
23619;BME280;18207;32.078;34.818;2023-01-28T11:21:34;100585.28;;;29.52;29.65
23619;BME280;18207;32.078;34.818;2023-01-28T11:24:13;100585.66;;;29.50;29.83
23619;BME280;18207;32.078;34.818;2023-01-28T11:26:51;100581.59;;;29.48;29.99
23619;BME280;18207;32.078;34.818;2023-01-28T11:29:29;100584.03;;;29.46;29.67
23619;BME280;18207;32.078;34.818;2023-01-28T11:32:00;100584.44;;;29.41;29.79
23619;BME280;18207;32.078;34.818;2023-01-28T11:34:34;100585.22;;;29.38;29.36
23619;BME280;18207;32.078;34.818;2023-01-28T11:37:13;100575.84;;;29.34;29.74
23619;BME280;18207;32.078;34.818;2023-01-28T11:39:43;100580.72;;;29.30;29.68
23619;BME280;18207;32.078;34.818;2023-01-28T11:42:18;100577.88;;;29.30;29.68
23619;BME280;18207;32.078;34.818;2023-01-28T11:44:51;100583.53;;;29.26;29.49
23619;BME280;18207;32.078;34.818;2023-01-28T11:47:40;100581.06;;;29.25;29.79
23619;BME280;18207;32.078;34.818;2023-01-28T11:50:31;100589.16;;;29.23;30.14
23619;BME280;18207;32.078;34.818;2023-01-28T11:56:48;100594.78;;;29.16;30.06
23619;BME280;18207;32.078;34.818;2023-01-28T12:02:49;100605.69;;;29.10;29.97
23619;BME280;18207;32.078;34.818;2023-01-28T12:05:47;100611.75;;;29.09;30.01
23619;BME280;18207;32.078;34.818;2023-01-28T12:08:23;100606.50;;;29.07;30.04
23619;BME280;18207;32.078;34.818;2023-01-28T12:11:12;100608.06;;;29.05;30.27
23619;BME280;18207;32.078;34.818;2023-01-28T12:14:04;100605.63;;;29.00;30.28
23619;BME280;18207;32.078;34.818;2023-01-28T12:16:59;100607.25;;;28.97;30.73
23619;BME280;18207;32.078;34.818;2023-01-28T12:20:08;100610.03;;;28.94;30.33
23619;BME280;18207;32.078;34.818;2023-01-28T12:23:05;100613.69;;;28.91;30.44
23619;BME280;18207;32.078;34.818;2023-01-28T12:26:11;100615.25;;;28.88;30.66
23619;BME280;18207;32.078;34.818;2023-01-28T12:29:06;100613.25;;;28.85;30.78
23619;BME280;18207;32.078;34.818;2023-01-28T12:31:58;100614.03;;;28.82;30.95
23619;BME280;18207;32.078;34.818;2023-01-28T12:34:56;100617.25;;;28.81;30.93
23619;BME280;18207;32.078;34.818;2023-01-28T12:37:46;100625.28;;;28.79;30.94
23619;BME280;18207;32.078;34.818;2023-01-28T12:40:53;100628.88;;;28.76;31.16
23619;BME280;18207;32.078;34.818;2023-01-28T12:43:48;100632.53;;;28.73;31.19
23619;BME280;18207;32.078;34.818;2023-01-28T12:46:39;100637.34;;;28.69;31.48
23619;BME280;18207;32.078;34.818;2023-01-28T12:49:17;100635.28;;;28.66;31.81
23619;BME280;18207;32.078;34.818;2023-01-28T12:52:00;100633.66;;;28.65;31.76
23619;BME280;18207;32.078;34.818;2023-01-28T12:54:39;100640.53;;;28.64;31.86
23619;BME280;18207;32.078;34.818;2023-01-28T12:57:19;100642.56;;;28.63;32.00
23619;BME280;18207;32.078;34.818;2023-01-28T12:59:57;100642.56;;;28.63;32.21
23619;BME280;18207;32.078;34.818;2023-01-28T13:02:38;100653.44;;;28.62;32.53
23619;BME280;18207;32.078;34.818;2023-01-28T13:05:14;100644.53;;;28.60;32.55
23619;BME280;18207;32.078;34.818;2023-01-28T13:07:54;100657.06;;;28.59;32.70
23619;BME280;18207;32.078;34.818;2023-01-28T13:10:31;100660.28;;;28.57;33.00
23619;BME280;18207;32.078;34.818;2023-01-28T13:13:04;100665.50;;;28.55;32.92
23619;BME280;18207;32.078;34.818;2023-01-28T13:15:40;100667.94;;;28.53;33.11
23619;BME280;18207;32.078;34.818;2023-01-28T13:18:42;100671.09;;;28.48;33.16
23619;BME280;18207;32.078;34.818;2023-01-28T13:21:28;100660.97;;;28.44;33.39
23619;BME280;18207;32.078;34.818;2023-01-28T13:24:30;100657.28;;;28.40;33.46
23619;BME280;18207;32.078;34.818;2023-01-28T13:27:19;100670.19;;;28.37;33.51
23619;BME280;18207;32.078;34.818;2023-01-28T13:30:03;100664.13;;;28.35;33.61
23619;BME280;18207;32.078;34.818;2023-01-28T13:32:35;100667.34;;;28.34;33.78